createdAt,value
2019-05-10T00:00:44.874Z,1.47
2019-05-10T00:03:31.811Z,1.33
2019-05-10T00:06:18.205Z,1.20
2019-05-10T00:08:46.275Z,1.30
2019-05-10T00:11:22.109Z,1.33
2019-05-10T00:14:04.591Z,2.10
2019-05-10T00:16:33.217Z,7.20
2019-05-10T00:19:02.295Z,3.30
2019-05-10T00:21:31.029Z,2.00
2019-05-10T00:23:59.699Z,1.40
2019-05-10T00:26:28.441Z,2.60
2019-05-10T00:28:57.220Z,1.67
2019-05-10T00:31:25.858Z,2.30
2019-05-10T00:33:54.454Z,1.40
2019-05-10T00:36:23.110Z,2.90
2019-05-10T00:38:51.719Z,1.63
2019-05-10T00:41:20.381Z,1.73
2019-05-10T00:43:49.140Z,1.77
2019-05-10T00:46:17.806Z,4.00
2019-05-10T00:48:46.409Z,4.00
2019-05-10T00:51:15.052Z,2.47
2019-05-10T00:53:43.653Z,7.97
2019-05-10T00:56:12.424Z,6.43
2019-05-10T00:58:41.069Z,8.03
2019-05-10T01:01:09.665Z,5.60
2019-05-10T01:03:38.335Z,6.40
2019-05-10T01:06:07.153Z,8.10
2019-05-10T01:08:35.834Z,12.40
2019-05-10T01:11:04.421Z,9.17
2019-05-10T01:13:33.356Z,7.13
2019-05-10T01:16:01.921Z,9.00
2019-05-10T01:18:30.516Z,6.33
2019-05-10T01:21:00.499Z,7.63
2019-05-10T01:23:29.102Z,5.27
2019-05-10T01:25:57.762Z,5.30
2019-05-10T01:28:26.505Z,7.90
2019-05-10T01:30:55.176Z,5.50
2019-05-10T01:33:23.844Z,2.77
2019-05-10T01:35:52.514Z,9.23
2019-05-10T01:38:21.112Z,2.53
2019-05-10T01:40:49.878Z,2.63
2019-05-10T01:43:18.525Z,6.70
2019-05-10T01:45:47.123Z,6.63
2019-05-10T01:48:15.732Z,9.63
2019-05-10T01:50:44.781Z,10.30
2019-05-10T01:53:13.365Z,8.50
2019-05-10T01:55:51.473Z,9.97
2019-05-10T01:58:12.493Z,14.83
2019-05-10T02:00:41.089Z,5.80
2019-05-10T02:03:09.664Z,8.47
2019-05-10T02:05:38.300Z,7.17
2019-05-10T02:08:07.026Z,5.47
2019-05-10T02:10:35.625Z,4.70
2019-05-10T02:13:04.510Z,6.43
2019-05-10T02:15:33.258Z,11.20
2019-05-10T02:18:01.874Z,4.30
2019-05-10T02:20:30.566Z,2.70
2019-05-10T02:22:59.211Z,2.83
2019-05-10T02:25:27.811Z,7.30
2019-05-10T02:27:56.460Z,5.90
2019-05-10T02:30:25.059Z,5.50
2019-05-10T02:32:53.661Z,3.20
2019-05-10T02:35:22.297Z,2.90
2019-05-10T02:37:50.897Z,5.30
2019-05-10T02:40:19.811Z,5.43
2019-05-10T02:42:48.563Z,7.30
2019-05-10T02:45:17.488Z,5.53
2019-05-10T02:47:46.153Z,6.67
2019-05-10T02:50:15.147Z,4.60
2019-05-10T02:52:43.818Z,5.63
2019-05-10T02:55:12.578Z,4.17
2019-05-10T02:57:41.581Z,4.00
2019-05-10T03:00:45.243Z,4.70
2019-05-10T03:03:16.073Z,5.83
2019-05-10T03:05:48.500Z,4.47
2019-05-10T03:08:16.055Z,3.20
2019-05-10T03:10:47.731Z,6.37
2019-05-10T03:13:19.713Z,4.10
2019-05-10T03:15:51.361Z,4.00
2019-05-10T03:18:22.425Z,5.47
2019-05-10T03:20:52.604Z,4.00
2019-05-10T03:23:21.733Z,4.70
2019-05-10T03:25:50.372Z,6.00
2019-05-10T03:28:18.974Z,3.73
2019-05-10T03:30:47.634Z,5.97
2019-05-10T03:33:16.348Z,4.97
2019-05-10T03:35:45.619Z,10.50
2019-05-10T03:38:14.457Z,5.20
2019-05-10T03:40:43.475Z,3.97
2019-05-10T03:43:12.090Z,5.27
2019-05-10T03:45:40.726Z,6.50
2019-05-10T03:48:09.404Z,7.30
2019-05-10T03:50:38.004Z,7.10
2019-05-10T03:53:06.620Z,12.43
2019-05-10T03:55:35.252Z,4.63
2019-05-10T03:58:04.727Z,5.10
2019-05-10T04:00:33.328Z,4.63
2019-05-10T04:03:02.196Z,7.50
2019-05-10T04:05:30.845Z,9.70
2019-05-10T04:07:59.448Z,8.73
2019-05-10T04:10:28.154Z,5.87
2019-05-10T04:12:56.785Z,11.27
2019-05-10T04:15:25.427Z,3.60
2019-05-10T04:17:54.100Z,8.17
2019-05-10T04:20:22.779Z,10.17
2019-05-10T04:22:51.380Z,8.10
2019-05-10T04:25:20.094Z,8.30
2019-05-10T04:27:48.689Z,7.37
2019-05-10T04:30:17.831Z,11.63
2019-05-10T04:32:46.516Z,6.67
2019-05-10T04:35:15.177Z,4.43
2019-05-10T04:37:43.770Z,8.20
2019-05-10T04:40:12.830Z,7.80
2019-05-10T04:42:41.425Z,5.97
2019-05-10T04:45:11.258Z,9.77
2019-05-10T04:47:40.018Z,7.17
2019-05-10T04:50:08.784Z,9.20
2019-05-10T04:52:37.383Z,17.20
2019-05-10T04:55:07.684Z,9.93
2019-05-10T04:57:49.871Z,8.90
2019-05-10T05:00:09.925Z,12.13
2019-05-10T05:02:39.064Z,11.20
2019-05-10T05:05:08.532Z,6.30
2019-05-10T05:07:37.137Z,4.80
2019-05-10T05:10:10.305Z,7.20
2019-05-10T05:12:38.898Z,8.33
2019-05-10T05:15:08.751Z,10.53
2019-05-10T05:17:37.432Z,9.83
2019-05-10T05:20:06.582Z,5.67
2019-05-10T05:22:35.188Z,7.40
2019-05-10T05:25:05.248Z,7.30
2019-05-10T05:27:34.023Z,8.00
2019-05-10T05:30:03.193Z,6.47
2019-05-10T05:32:32.084Z,8.47
2019-05-10T05:35:00.753Z,4.57
2019-05-10T05:37:29.352Z,7.17
2019-05-10T05:39:57.994Z,6.37
2019-05-10T05:42:27.878Z,9.67
2019-05-10T05:44:57.091Z,6.43
2019-05-10T05:47:25.948Z,7.00
2019-05-10T05:49:54.549Z,16.53
2019-05-10T05:52:23.148Z,5.93
2019-05-10T05:54:52.823Z,4.40
2019-05-10T05:57:27.175Z,8.00
2019-05-10T05:59:57.313Z,10.87
2019-05-10T06:02:22.899Z,7.57
2019-05-10T06:04:51.507Z,11.50
2019-05-10T06:07:20.113Z,5.20
2019-05-10T06:09:48.817Z,5.07
2019-05-10T06:12:17.410Z,6.83
2019-05-10T06:14:49.768Z,4.50
2019-05-10T06:17:16.402Z,2.60
2019-05-10T06:19:45.071Z,4.47
2019-05-10T06:22:13.670Z,7.53
2019-05-10T06:24:46.638Z,4.37
2019-05-10T06:27:12.818Z,6.60
2019-05-10T06:29:43.193Z,4.63
2019-05-10T06:32:11.984Z,4.50
2019-05-10T06:34:40.593Z,4.63
2019-05-10T06:37:09.193Z,3.10
2019-05-10T06:39:37.948Z,6.40
2019-05-10T06:42:06.603Z,10.47
2019-05-10T06:44:35.224Z,4.83
2019-05-10T06:47:08.395Z,3.60
2019-05-10T06:49:34.280Z,5.23
2019-05-10T06:52:02.890Z,4.90
2019-05-10T06:54:31.528Z,5.70
2019-05-10T06:57:00.198Z,3.63
2019-05-10T06:59:28.799Z,4.70
2019-05-10T07:01:57.565Z,4.93
2019-05-10T07:04:26.239Z,5.90
2019-05-10T07:06:54.902Z,2.57
2019-05-10T07:09:23.529Z,2.80
2019-05-10T07:11:52.134Z,2.87
2019-05-10T07:14:25.592Z,3.57
2019-05-10T07:16:51.128Z,2.30
2019-05-10T07:19:19.732Z,2.80
2019-05-10T07:21:51.202Z,5.90
2019-05-10T07:24:25.005Z,2.33
2019-05-10T07:26:49.032Z,9.20
2019-05-10T07:29:29.758Z,3.47
2019-05-10T07:31:48.242Z,3.33
2019-05-10T07:34:17.668Z,3.10
2019-05-10T07:36:46.489Z,6.60
2019-05-10T07:39:15.202Z,12.03
2019-05-10T07:41:43.816Z,4.50
2019-05-10T07:44:12.520Z,3.53
2019-05-10T07:46:47.090Z,3.93
2019-05-10T07:49:11.597Z,3.83
2019-05-10T07:51:40.195Z,3.13
2019-05-10T07:54:08.844Z,8.13
2019-05-10T07:56:38.804Z,9.00
2019-05-10T07:59:07.775Z,6.00
2019-05-10T08:01:36.428Z,3.83
2019-05-10T08:04:05.175Z,9.40
2019-05-10T08:06:40.344Z,5.60
2019-05-10T08:09:09.544Z,3.37
2019-05-10T08:11:39.081Z,3.43
2019-05-10T08:14:11.091Z,5.83
2019-05-10T08:16:38.761Z,4.73
2019-05-10T08:19:07.584Z,6.27
2019-05-10T08:21:36.183Z,4.20
2019-05-10T08:24:13.044Z,4.37
2019-05-10T08:26:35.351Z,4.40
2019-05-10T08:29:07.859Z,3.80
2019-05-10T08:31:40.285Z,3.53
2019-05-10T08:34:05.049Z,3.10
2019-05-10T08:36:37.262Z,4.40
2019-05-10T08:39:10.723Z,10.33
2019-05-10T08:41:36.270Z,3.10
2019-05-10T08:44:05.186Z,3.30
2019-05-10T08:46:40.763Z,3.23
2019-05-10T08:49:04.615Z,3.13
2019-05-10T08:51:34.536Z,3.00
2019-05-10T08:54:03.423Z,6.67
2019-05-10T08:56:33.324Z,3.03
2019-05-10T08:59:03.916Z,2.40
2019-05-10T09:01:38.745Z,2.80
2019-05-10T09:04:06.847Z,7.30
2019-05-10T09:06:33.418Z,4.40
2019-05-10T09:09:06.004Z,2.03
2019-05-10T09:11:32.757Z,4.00
2019-05-10T09:14:03.144Z,4.37
2019-05-10T09:16:39.417Z,6.73
2019-05-10T09:19:02.747Z,1.63
2019-05-10T09:21:32.147Z,9.13
2019-05-10T09:24:03.424Z,6.53
2019-05-10T09:26:32.191Z,1.97
2019-05-10T09:29:01.649Z,3.47
2019-05-10T09:31:32.699Z,7.70
2019-05-10T09:34:02.520Z,3.60
2019-05-10T09:36:35.996Z,3.90
2019-05-10T09:39:03.385Z,4.93
2019-05-10T09:41:33.780Z,5.10
2019-05-10T09:44:03.129Z,4.30
2019-05-10T09:46:32.539Z,4.37
2019-05-10T09:49:11.488Z,4.83
2019-05-10T09:51:33.181Z,2.20
2019-05-10T09:54:02.117Z,4.53
2019-05-10T09:56:32.773Z,5.23
2019-05-10T09:59:01.270Z,6.13
2019-05-10T10:01:29.897Z,2.30
2019-05-10T10:04:02.119Z,4.10
2019-05-10T10:06:29.769Z,18.00
2019-05-10T10:09:00.936Z,5.20
2019-05-10T10:11:29.193Z,2.83
2019-05-10T10:14:00.008Z,2.00
2019-05-10T10:16:28.326Z,12.57
2019-05-10T10:18:56.894Z,2.73
2019-05-10T10:21:35.097Z,5.33
2019-05-10T10:24:00.046Z,2.63
2019-05-10T10:26:26.845Z,3.90
2019-05-10T10:28:57.852Z,4.80
2019-05-10T10:31:30.396Z,2.10
2019-05-10T10:33:59.592Z,3.30
2019-05-10T10:36:27.456Z,5.10
2019-05-10T10:38:56.247Z,6.50
2019-05-10T10:41:26.390Z,3.83
2019-05-10T10:43:55.178Z,5.23
2019-05-10T10:46:23.836Z,3.33
2019-05-10T10:48:52.435Z,5.53
2019-05-10T10:51:21.034Z,9.23
2019-05-10T10:53:50.201Z,5.00
2019-05-10T10:56:18.865Z,3.87
2019-05-10T10:58:49.944Z,3.57
2019-05-10T11:01:25.022Z,5.77
2019-05-10T11:03:49.071Z,5.10
2019-05-10T11:06:17.943Z,3.90
2019-05-10T11:08:46.604Z,3.73
2019-05-10T11:11:15.274Z,4.70
2019-05-10T11:13:45.771Z,5.93
2019-05-10T11:16:15.762Z,2.40
2019-05-10T11:18:44.509Z,2.77
2019-05-10T11:21:13.112Z,3.70
2019-05-10T11:23:42.165Z,2.83
2019-05-10T11:26:11.053Z,3.30
2019-05-10T11:28:43.974Z,4.83
2019-05-10T11:31:11.372Z,4.00
2019-05-10T11:33:41.557Z,3.30
2019-05-10T11:36:11.431Z,3.40
2019-05-10T11:38:42.007Z,5.60
2019-05-10T11:41:13.621Z,6.37
2019-05-10T11:43:41.904Z,4.00
2019-05-10T11:46:11.772Z,4.90
2019-05-10T11:48:42.130Z,4.40
2019-05-10T11:51:16.001Z,2.50
2019-05-10T11:53:41.572Z,3.27
2019-05-10T11:56:14.140Z,6.97
2019-05-10T11:58:49.059Z,2.77
2019-05-10T12:01:17.769Z,3.57
2019-05-10T12:03:42.471Z,3.10
2019-05-10T12:06:12.147Z,5.17
2019-05-10T12:08:42.039Z,3.90
2019-05-10T12:11:27.258Z,6.83
2019-05-10T12:13:41.616Z,2.23
2019-05-10T12:16:12.349Z,3.07
2019-05-10T12:21:11.413Z,6.40
2019-05-10T12:23:49.999Z,2.60
2019-05-10T12:26:59.069Z,1.87
2019-05-10T12:28:41.019Z,4.80
2019-05-10T12:31:15.241Z,4.30
2019-05-10T12:33:44.771Z,3.77
2019-05-10T12:36:22.112Z,2.70
2019-05-10T12:38:40.921Z,2.10
2019-05-10T12:41:09.524Z,3.90
2019-05-10T12:43:38.163Z,3.90
2019-05-10T12:46:06.898Z,4.93
2019-05-10T12:48:36.074Z,2.50
2019-05-10T12:51:11.544Z,2.67
2019-05-10T12:53:36.824Z,2.37
2019-05-10T12:56:05.973Z,2.20
2019-05-10T12:58:34.569Z,4.70
2019-05-10T13:01:03.285Z,3.60
2019-05-10T13:03:33.763Z,3.73
2019-05-10T13:06:02.276Z,5.23
2019-05-10T13:08:31.030Z,3.13
2019-05-10T13:10:59.865Z,3.00
2019-05-10T13:13:29.998Z,4.77
2019-05-10T13:16:03.567Z,5.80
2019-05-10T13:20:59.820Z,6.90
2019-05-10T13:23:28.539Z,4.40
2019-05-10T13:25:57.140Z,7.47
2019-05-10T13:28:25.932Z,9.80
2019-05-10T13:30:59.931Z,3.80
2019-05-10T13:33:29.174Z,2.63
2019-05-10T13:35:56.506Z,2.50
2019-05-10T13:38:25.790Z,2.73
2019-05-10T13:40:54.389Z,2.03
2019-05-10T13:43:26.612Z,6.80
2019-05-10T13:45:53.510Z,4.40
2019-05-10T13:48:26.169Z,3.33
2019-05-10T13:50:52.457Z,1.97
2019-05-10T13:53:23.238Z,4.50
2019-05-10T13:55:51.589Z,4.67
2019-05-10T13:58:20.247Z,2.67
2019-05-10T14:00:48.943Z,3.47
2019-05-10T14:03:17.542Z,4.13
2019-05-10T14:05:46.139Z,2.70
2019-05-10T14:08:14.897Z,3.30
2019-05-10T14:10:43.488Z,2.87
2019-05-10T14:13:16.222Z,3.47
2019-05-10T14:15:42.543Z,10.60
2019-05-10T14:18:11.154Z,4.83
2019-05-10T14:20:39.821Z,3.80
2019-05-10T14:23:08.490Z,4.07
2019-05-10T14:25:39.072Z,4.40
2019-05-10T14:28:09.703Z,3.17
2019-05-10T14:30:37.796Z,5.73
2019-05-10T14:33:08.820Z,4.23
2019-05-10T14:35:36.783Z,3.50
2019-05-10T14:38:08.253Z,5.40
2019-05-10T14:40:35.921Z,5.00
2019-05-10T14:43:04.510Z,4.60
2019-05-10T14:45:33.171Z,6.13
2019-05-10T14:48:01.944Z,6.60
2019-05-10T14:50:30.542Z,5.80
2019-05-10T14:52:59.190Z,4.83
2019-05-10T14:55:34.300Z,8.27
2019-05-10T14:57:58.219Z,6.40
2019-05-10T15:00:27.123Z,9.63
2019-05-10T15:02:56.808Z,8.33
2019-05-10T15:05:26.117Z,7.80
2019-05-10T15:07:55.167Z,9.23
2019-05-10T15:10:23.762Z,10.17
2019-05-10T15:12:52.377Z,7.53
2019-05-10T15:15:21.149Z,6.70
2019-05-10T15:17:55.125Z,5.70
2019-05-10T15:20:20.196Z,6.60
2019-05-10T15:22:48.866Z,6.77
2019-05-10T15:25:17.705Z,6.07
2019-05-10T15:27:46.445Z,6.30
2019-05-10T15:30:15.756Z,14.10
2019-05-10T15:32:44.350Z,8.47
2019-05-10T15:35:13.271Z,7.30
2019-05-10T15:37:46.298Z,7.57
2019-05-10T15:40:13.248Z,7.30
2019-05-10T15:42:41.864Z,10.33
2019-05-10T15:45:12.463Z,9.03
2019-05-10T15:47:50.871Z,8.00
2019-05-10T15:50:12.457Z,6.40
2019-05-10T15:52:46.647Z,15.07
2019-05-10T15:55:16.422Z,8.77
2019-05-10T15:57:42.403Z,6.53
2019-05-10T16:00:11.538Z,8.07
2019-05-10T16:02:40.134Z,7.37
2019-05-10T16:05:23.367Z,10.80
2019-05-10T16:07:39.447Z,7.33
2019-05-10T16:10:08.279Z,10.17
2019-05-10T16:12:37.757Z,11.50
2019-05-10T16:15:13.867Z,6.10
2019-05-10T16:17:40.144Z,10.63
2019-05-10T16:20:10.034Z,7.37
2019-05-10T16:22:38.700Z,5.97
2019-05-10T16:25:07.942Z,10.17
2019-05-10T16:27:40.415Z,9.80
2019-05-10T16:30:12.122Z,8.53
2019-05-10T16:32:38.444Z,9.13
2019-05-10T16:35:12.532Z,7.90
2019-05-10T16:37:37.909Z,13.90
2019-05-10T16:40:07.541Z,10.20
2019-05-10T16:42:36.176Z,12.63
2019-05-10T16:45:05.215Z,12.00
2019-05-10T16:47:33.884Z,9.83
2019-05-10T16:50:02.717Z,9.97
2019-05-10T16:52:31.460Z,12.53
2019-05-10T16:55:03.535Z,9.40
2019-05-10T16:57:32.097Z,10.20
2019-05-10T17:00:01.970Z,10.00
2019-05-10T17:02:31.124Z,6.07
2019-05-10T17:04:59.790Z,11.53
2019-05-10T17:07:28.388Z,7.53
2019-05-10T17:09:56.982Z,6.00
2019-05-10T17:12:27.754Z,7.80
2019-05-10T17:15:02.012Z,8.60
2019-05-10T17:17:31.238Z,9.63
2019-05-10T17:19:58.744Z,6.93
2019-05-10T17:22:27.525Z,8.10
2019-05-10T17:24:56.807Z,9.40
2019-05-10T17:27:26.778Z,8.60
2019-05-10T17:29:55.353Z,8.50
2019-05-10T17:32:24.636Z,12.77
2019-05-10T17:34:54.365Z,9.20
2019-05-10T17:37:22.963Z,9.80
2019-05-10T17:39:53.687Z,12.40
2019-05-10T17:42:22.044Z,10.70
2019-05-10T17:44:55.350Z,7.90
2019-05-10T17:47:20.961Z,11.87
2019-05-10T17:49:49.602Z,7.90
2019-05-10T17:52:18.189Z,11.50
2019-05-10T17:54:46.998Z,10.53
2019-05-10T17:57:16.567Z,7.03
2019-05-10T17:59:47.105Z,10.60
2019-05-10T18:02:16.375Z,6.70
2019-05-10T18:04:45.300Z,7.60
2019-05-10T18:07:13.889Z,8.13
2019-05-10T18:09:42.470Z,6.87
2019-05-10T18:12:15.690Z,6.57
2019-05-10T18:14:41.501Z,9.63
2019-05-10T18:17:10.110Z,9.37
2019-05-10T18:19:38.813Z,7.73
2019-05-10T18:22:07.551Z,7.20
2019-05-10T18:24:41.396Z,5.77
2019-05-10T18:27:06.669Z,19.60
2019-05-10T18:29:35.265Z,7.17
2019-05-10T18:32:03.946Z,9.93
2019-05-10T18:34:35.152Z,8.47
2019-05-10T18:37:02.893Z,6.40
2019-05-10T18:39:31.520Z,9.60
2019-05-10T18:42:00.593Z,8.77
2019-05-10T18:44:29.199Z,12.47
2019-05-10T18:46:57.803Z,13.60
2019-05-10T18:49:26.458Z,11.03
2019-05-10T18:52:03.527Z,17.80
2019-05-10T18:54:25.592Z,11.67
2019-05-10T18:56:54.472Z,10.80
2019-05-10T18:59:23.079Z,11.03
2019-05-10T19:01:51.765Z,13.73
2019-05-10T19:04:20.494Z,13.40
2019-05-10T19:06:50.188Z,11.73
2019-05-10T19:09:19.495Z,10.67
2019-05-10T19:11:51.253Z,15.73
2019-05-10T19:14:23.794Z,9.90
2019-05-10T19:16:50.179Z,10.43
2019-05-10T19:19:18.816Z,9.57
2019-05-10T19:21:47.463Z,9.97
2019-05-10T19:24:16.081Z,11.63
2019-05-10T19:26:44.789Z,10.63
2019-05-10T19:29:13.534Z,15.77
2019-05-10T19:31:42.135Z,9.97
2019-05-10T19:34:15.207Z,11.97
2019-05-10T19:36:41.626Z,12.20
2019-05-10T19:39:10.437Z,10.70
2019-05-10T19:41:39.191Z,8.47
2019-05-10T19:44:07.864Z,10.33
2019-05-10T19:46:39.517Z,9.53
2019-05-10T19:49:13.663Z,12.90
2019-05-10T19:51:42.267Z,17.37
2019-05-10T19:54:07.915Z,10.80
2019-05-10T19:56:38.796Z,9.20
2019-05-10T19:59:11.837Z,10.67
2019-05-10T20:01:37.578Z,17.27
2019-05-10T20:04:09.369Z,16.13
2019-05-10T20:06:36.545Z,12.30
2019-05-10T20:09:06.655Z,10.93
2019-05-10T20:11:35.673Z,14.03
2019-05-10T20:14:07.421Z,14.20
2019-05-10T20:16:51.032Z,10.37
2019-05-10T20:19:05.188Z,11.00
2019-05-10T20:21:33.792Z,13.47
2019-05-10T20:24:02.495Z,10.90
2019-05-10T20:26:31.208Z,16.60
2019-05-10T20:28:59.814Z,12.83
2019-05-10T20:31:30.572Z,16.43
2019-05-10T20:33:58.824Z,11.03
2019-05-10T20:36:27.414Z,10.97
2019-05-10T20:38:56.000Z,10.80
2019-05-10T20:41:24.664Z,13.50
2019-05-10T20:43:53.272Z,13.57
2019-05-10T20:46:21.895Z,10.00
2019-05-10T20:48:50.523Z,10.90
2019-05-10T20:51:19.199Z,13.37
2019-05-10T20:53:48.289Z,10.33
2019-05-10T20:56:17.170Z,13.53
2019-05-10T20:58:45.805Z,15.90
2019-05-10T21:01:14.500Z,16.20
2019-05-10T21:03:43.156Z,10.07
2019-05-10T21:06:11.846Z,17.90
2019-05-10T21:08:40.438Z,17.37
2019-05-10T21:11:09.082Z,23.87
2019-05-10T21:13:37.687Z,12.70
2019-05-10T21:16:06.498Z,15.53
2019-05-10T21:18:35.266Z,18.50
2019-05-10T21:21:03.920Z,10.43
2019-05-10T21:23:32.514Z,12.63
2019-05-10T21:26:01.947Z,19.40
2019-05-10T21:28:30.528Z,9.80
2019-05-10T21:30:59.130Z,17.83
2019-05-10T21:33:27.767Z,16.53
2019-05-10T21:35:56.367Z,12.77
2019-05-10T21:38:33.238Z,10.87
2019-05-10T21:40:55.521Z,14.17
2019-05-10T21:43:24.133Z,17.23
2019-05-10T21:45:52.737Z,13.73
2019-05-10T21:48:21.395Z,14.17
2019-05-10T21:50:49.990Z,7.67
2019-05-10T21:53:18.601Z,13.63
2019-05-10T21:55:47.350Z,12.77
2019-05-10T21:58:15.936Z,13.37
2019-05-10T22:00:46.168Z,9.30
2019-05-10T22:03:15.694Z,13.17
2019-05-10T22:05:44.457Z,12.33
2019-05-10T22:08:13.070Z,11.27
2019-05-10T22:10:41.783Z,13.53
2019-05-10T22:13:10.421Z,11.03
2019-05-10T22:15:39.160Z,16.23
2019-05-10T22:18:08.191Z,17.10
2019-05-10T22:20:36.800Z,19.83
2019-05-10T22:23:05.475Z,15.43
2019-05-10T22:25:34.195Z,14.77
2019-05-10T22:28:02.799Z,16.63
2019-05-10T22:30:31.400Z,15.10
2019-05-10T22:33:00.126Z,21.27
2019-05-10T22:35:28.702Z,8.10
2019-05-10T22:37:57.384Z,12.17
2019-05-10T22:40:26.132Z,14.70
2019-05-10T22:42:54.738Z,12.43
2019-05-10T22:45:23.334Z,10.00
2019-05-10T22:47:52.049Z,12.33
2019-05-10T22:50:21.062Z,14.07
2019-05-10T22:52:49.667Z,14.27
2019-05-10T22:55:18.334Z,12.03
2019-05-10T22:57:46.934Z,13.27
2019-05-10T23:00:16.344Z,13.93
2019-05-10T23:02:44.999Z,13.93
2019-05-10T23:05:14.164Z,17.30
2019-05-10T23:07:42.763Z,8.13
2019-05-10T23:10:11.698Z,10.13
2019-05-10T23:12:40.379Z,10.17
2019-05-10T23:15:09.316Z,9.97
2019-05-10T23:17:37.978Z,8.37
2019-05-10T23:20:06.717Z,9.57
2019-05-10T23:22:35.320Z,7.53
2019-05-10T23:25:05.208Z,11.00
2019-05-10T23:27:33.881Z,14.70
2019-05-10T23:30:02.484Z,10.93
2019-05-10T23:32:31.304Z,12.83
2019-05-10T23:34:59.909Z,16.57
2019-05-10T23:37:28.571Z,9.27
2019-05-10T23:39:57.273Z,11.67
2019-05-10T23:42:25.870Z,7.77
2019-05-10T23:44:54.476Z,7.30
2019-05-10T23:47:23.108Z,11.73
2019-05-10T23:49:51.778Z,13.43
2019-05-10T23:52:20.449Z,9.63
2019-05-10T23:54:49.170Z,10.43
2019-05-10T23:57:17.775Z,11.30
2019-05-10T23:59:46.376Z,10.00
